createdAt,value
2023-03-05T00:01:35.884Z,3.90
2023-03-05T00:05:39.518Z,4.93
2023-03-05T00:09:43.119Z,4.85
2023-03-05T00:13:47.098Z,3.83
2023-03-05T00:17:50.638Z,3.97
2023-03-05T00:21:54.202Z,3.95
2023-03-05T00:26:00.928Z,3.10
2023-03-05T00:30:05.882Z,3.15
2023-03-05T00:34:13.159Z,4.78
2023-03-05T00:38:16.633Z,3.85
2023-03-05T00:42:20.149Z,4.05
2023-03-05T00:46:24.647Z,3.72
2023-03-05T00:50:28.683Z,4.28
2023-03-05T00:54:32.167Z,4.57
2023-03-05T00:58:35.686Z,4.63
2023-03-05T01:02:39.226Z,3.67
2023-03-05T01:06:46.544Z,3.97
2023-03-05T01:10:50.481Z,4.63
2023-03-05T01:14:53.942Z,4.88
2023-03-05T01:18:57.599Z,4.93
2023-03-05T01:23:02.079Z,4.40
2023-03-05T01:27:06.749Z,4.00
2023-03-05T01:31:11.441Z,4.00
2023-03-05T01:35:20.793Z,4.05
2023-03-05T01:39:24.246Z,4.63
2023-03-05T01:43:33.488Z,4.22
2023-03-05T01:47:37.427Z,4.07
2023-03-05T01:52:12.266Z,4.35
2023-03-05T01:56:17.094Z,3.80
2023-03-05T02:00:28.134Z,5.13
2023-03-05T02:04:39.113Z,4.90
2023-03-05T02:08:42.611Z,4.72
2023-03-05T02:12:47.359Z,3.95
2023-03-05T02:16:51.252Z,4.97
2023-03-05T02:20:57.683Z,3.13
2023-03-05T02:25:01.248Z,3.77
2023-03-05T02:29:07.753Z,3.13
2023-03-05T02:33:15.004Z,3.55
2023-03-05T02:37:19.482Z,3.38
2023-03-05T02:41:23.496Z,3.00
2023-03-05T02:45:27.667Z,4.10
2023-03-05T02:49:32.172Z,3.72
2023-03-05T02:53:35.950Z,5.53
2023-03-05T02:57:39.747Z,4.13
2023-03-05T03:01:43.297Z,4.60
2023-03-05T03:05:46.894Z,3.55
2023-03-05T03:09:50.547Z,4.00
2023-03-05T03:13:54.000Z,2.92
2023-03-05T03:17:57.510Z,3.28
2023-03-05T03:22:01.816Z,3.95
2023-03-05T03:26:05.561Z,3.20
2023-03-05T03:30:09.724Z,4.25
2023-03-05T03:34:15.907Z,4.07
2023-03-05T03:38:19.451Z,3.63
2023-03-05T03:42:25.604Z,3.88
2023-03-05T03:46:29.280Z,3.77
2023-03-05T03:50:32.879Z,3.08
2023-03-05T03:54:40.202Z,3.17
2023-03-05T03:58:44.755Z,4.63
2023-03-05T04:02:48.270Z,3.70
2023-03-05T04:06:51.874Z,3.58
2023-03-05T04:10:55.441Z,3.10
2023-03-05T04:14:58.862Z,4.15
2023-03-05T04:19:02.285Z,4.70
2023-03-05T04:23:05.850Z,3.45
2023-03-05T04:27:11.244Z,3.10
2023-03-05T04:31:15.538Z,3.67
2023-03-05T04:35:19.459Z,3.22
2023-03-05T04:39:23.164Z,3.25
2023-03-05T04:43:26.561Z,2.78
2023-03-05T04:47:30.099Z,2.63
2023-03-05T04:51:34.422Z,2.88
2023-03-05T04:55:37.809Z,3.08
2023-03-05T04:59:41.298Z,2.95
2023-03-05T05:03:45.497Z,3.15
2023-03-05T05:07:49.126Z,2.28
2023-03-05T05:11:52.617Z,2.92
2023-03-05T05:15:57.023Z,2.40
2023-03-05T05:20:06.803Z,3.80
2023-03-05T05:24:11.437Z,3.38
2023-03-05T05:28:15.142Z,3.38
2023-03-05T05:32:22.884Z,4.10
2023-03-05T05:36:28.224Z,4.03
2023-03-05T05:40:31.671Z,4.15
2023-03-05T05:44:35.254Z,4.28
2023-03-05T05:48:39.545Z,3.53
2023-03-05T05:52:43.115Z,3.25
2023-03-05T05:56:46.523Z,3.50
2023-03-05T06:00:50.048Z,2.33
2023-03-05T06:04:53.667Z,3.28
2023-03-05T06:08:58.025Z,3.38
2023-03-05T06:13:01.595Z,1.50
2023-03-05T06:17:04.978Z,1.90
2023-03-05T06:21:12.968Z,2.10
2023-03-05T06:25:16.589Z,2.55
2023-03-05T06:29:20.111Z,2.17
2023-03-05T06:33:25.481Z,1.50
2023-03-05T06:37:28.942Z,1.55
2023-03-05T06:41:33.670Z,1.50
2023-03-05T06:49:43.511Z,1.60
2023-03-05T06:53:49.379Z,0.95
2023-03-05T06:57:53.458Z,1.13
2023-03-05T07:01:57.007Z,0.65
2023-03-05T07:06:04.500Z,1.88
2023-03-05T07:10:09.583Z,0.88
2023-03-05T07:14:14.018Z,0.93
2023-03-05T07:18:18.410Z,1.10
2023-03-05T07:22:22.381Z,1.35
2023-03-05T07:26:26.535Z,1.23
2023-03-05T07:30:35.873Z,1.83
2023-03-05T07:34:39.493Z,2.10
2023-03-05T07:38:43.281Z,1.35
2023-03-05T07:42:46.783Z,1.73
2023-03-05T07:46:59.488Z,1.92
2023-03-05T07:51:07.861Z,1.98
2023-03-05T07:55:11.783Z,1.80
2023-03-05T07:59:15.279Z,1.30
2023-03-05T08:03:18.841Z,2.15
2023-03-05T08:07:22.308Z,2.08
2023-03-05T08:11:26.650Z,1.83
2023-03-05T08:15:31.950Z,1.98
2023-03-05T08:19:35.391Z,2.13
2023-03-05T08:23:39.690Z,2.50
2023-03-05T08:27:45.325Z,2.88
2023-03-05T08:31:54.842Z,2.50
2023-03-05T08:35:58.326Z,1.50
2023-03-05T08:40:01.738Z,1.75
2023-03-05T08:44:05.413Z,2.70
2023-03-05T08:48:08.897Z,2.50
2023-03-05T08:52:12.629Z,2.03
2023-03-05T08:56:16.384Z,2.00
2023-03-05T09:00:20.320Z,2.08
2023-03-05T09:04:23.723Z,1.70
2023-03-05T09:08:27.649Z,1.60
2023-03-05T09:12:31.246Z,7.88
2023-03-05T09:16:36.409Z,2.50
2023-03-05T09:20:39.921Z,1.63
2023-03-05T09:24:43.760Z,2.97
2023-03-05T09:28:47.681Z,2.30
2023-03-05T09:32:52.233Z,4.30
2023-03-05T09:36:55.709Z,4.70
2023-03-05T09:41:08.070Z,3.08
2023-03-05T09:45:27.513Z,3.00
2023-03-05T09:50:04.330Z,3.10
2023-03-05T09:54:18.915Z,2.20
2023-03-05T09:58:45.946Z,3.63
2023-03-05T10:02:56.050Z,2.70
2023-03-05T10:06:59.476Z,5.85
2023-03-05T10:11:11.139Z,2.17
2023-03-05T10:15:20.822Z,1.85
2023-03-05T10:20:04.689Z,2.58
2023-03-05T10:24:25.263Z,2.40
2023-03-05T10:28:34.556Z,3.03
2023-03-05T10:33:24.895Z,4.35
2023-03-05T10:37:37.570Z,2.25
2023-03-05T10:41:54.507Z,1.98
2023-03-05T10:46:00.243Z,2.28
2023-03-05T10:50:14.857Z,1.65
2023-03-05T10:54:36.126Z,2.70
2023-03-05T10:58:39.639Z,3.05
2023-03-05T11:03:02.069Z,2.42
2023-03-05T11:07:17.754Z,2.80
2023-03-05T11:11:23.846Z,2.73
2023-03-05T11:15:30.492Z,2.15
2023-03-05T11:19:34.792Z,3.40
2023-03-05T11:23:38.654Z,2.90
2023-03-05T11:27:55.353Z,2.55
2023-03-05T11:32:25.660Z,2.33
2023-03-05T11:36:36.969Z,1.75
2023-03-05T11:40:40.650Z,1.15
2023-03-05T11:44:50.851Z,1.50
2023-03-05T11:48:56.078Z,1.50
2023-03-05T11:53:12.349Z,2.20
2023-03-05T11:57:17.202Z,1.50
2023-03-05T12:01:25.079Z,1.20
2023-03-05T12:05:30.407Z,1.50
2023-03-05T12:09:38.139Z,1.10
2023-03-05T12:13:50.501Z,1.30
2023-03-05T12:18:19.450Z,1.10
2023-03-05T12:22:25.333Z,1.30
2023-03-05T12:26:50.528Z,1.33
2023-03-05T12:30:56.976Z,1.30
2023-03-05T12:35:08.535Z,1.80
2023-03-05T12:39:58.061Z,1.55
2023-03-05T12:44:07.523Z,1.80
2023-03-05T12:48:13.577Z,1.83
2023-03-05T12:52:27.665Z,2.05
2023-03-05T12:56:33.894Z,2.05
2023-03-05T13:01:12.199Z,2.30
2023-03-05T13:05:30.278Z,2.20
2023-03-05T13:09:36.658Z,1.15
2023-03-05T13:17:57.224Z,1.40
2023-03-05T13:22:04.978Z,1.23
2023-03-05T13:26:15.553Z,1.20
2023-03-05T13:30:28.476Z,1.83
2023-03-05T13:34:46.649Z,1.45
2023-03-05T13:38:51.698Z,1.55
2023-03-05T13:42:57.257Z,1.30
2023-03-05T13:47:29.254Z,1.23
2023-03-05T13:52:01.403Z,1.40
2023-03-05T13:56:08.175Z,1.27
2023-03-05T14:00:42.558Z,1.20
2023-03-05T14:04:47.944Z,1.40
2023-03-05T14:09:00.999Z,1.70
2023-03-05T14:13:12.315Z,1.50
2023-03-05T14:17:33.261Z,1.60
2023-03-05T14:21:50.760Z,2.38
2023-03-05T14:26:32.353Z,2.00
2023-03-05T14:30:36.562Z,1.95
2023-03-05T14:34:42.349Z,2.60
2023-03-05T14:38:46.016Z,2.30
2023-03-05T14:42:55.632Z,3.30
2023-03-05T14:46:59.165Z,2.95
2023-03-05T14:51:02.703Z,2.85
2023-03-05T14:55:07.197Z,2.70
2023-03-05T14:59:10.603Z,2.70
2023-03-05T15:03:16.119Z,2.63
2023-03-05T15:07:27.391Z,2.72
2023-03-05T15:11:30.983Z,2.67
2023-03-05T15:15:34.509Z,2.33
2023-03-05T15:19:37.977Z,2.35
2023-03-05T15:23:41.420Z,2.75
2023-03-05T15:27:46.154Z,2.67
2023-03-05T15:31:53.707Z,3.40
2023-03-05T15:35:57.405Z,2.03
2023-03-05T15:40:03.409Z,2.08
2023-03-05T15:44:07.822Z,3.00
2023-03-05T15:48:11.829Z,2.72
2023-03-05T15:52:15.925Z,2.90
2023-03-05T15:56:19.920Z,2.58
2023-03-05T16:00:30.755Z,2.28
2023-03-05T16:04:34.327Z,2.10
2023-03-05T16:08:37.916Z,2.35
2023-03-05T16:12:43.190Z,2.55
2023-03-05T16:16:46.858Z,2.50
2023-03-05T16:20:50.611Z,2.28
2023-03-05T16:24:54.065Z,2.45
2023-03-05T16:28:57.620Z,3.00
2023-03-05T16:33:01.270Z,3.00
2023-03-05T16:37:07.141Z,2.45
2023-03-05T16:41:10.628Z,2.63
2023-03-05T16:45:15.056Z,3.15
2023-03-05T16:49:18.638Z,2.85
2023-03-05T16:53:22.061Z,2.78
2023-03-05T16:57:26.274Z,2.65
2023-03-05T17:01:30.873Z,2.65
2023-03-05T17:05:37.162Z,2.67
2023-03-05T17:09:41.274Z,2.72
2023-03-05T17:13:48.202Z,1.98
2023-03-05T17:17:52.353Z,2.67
2023-03-05T17:21:55.989Z,3.30
2023-03-05T17:25:59.539Z,2.30
2023-03-05T17:30:03.186Z,2.47
2023-03-05T17:34:06.681Z,2.63
2023-03-05T17:38:11.128Z,3.08
2023-03-05T17:42:16.088Z,3.15
2023-03-05T17:46:19.703Z,3.03
2023-03-05T17:50:24.067Z,3.20
2023-03-05T17:54:28.906Z,3.00
2023-03-05T17:58:32.733Z,2.80
2023-03-05T18:02:36.180Z,2.80
2023-03-05T18:06:41.772Z,3.38
2023-03-05T18:10:46.749Z,2.03
2023-03-05T18:14:50.366Z,2.92
2023-03-05T18:18:54.507Z,2.63
2023-03-05T18:23:00.673Z,1.98
2023-03-05T18:27:04.391Z,1.85
2023-03-05T18:31:09.141Z,4.30
2023-03-05T18:35:14.831Z,4.13
2023-03-05T18:39:21.132Z,5.05
2023-03-05T18:43:25.751Z,4.50
2023-03-05T18:47:34.757Z,6.13
2023-03-05T18:51:42.911Z,4.20
2023-03-05T18:55:46.979Z,5.22
2023-03-05T18:59:50.473Z,5.60
2023-03-05T19:03:56.707Z,6.03
2023-03-05T19:08:02.203Z,6.60
2023-03-05T19:12:06.057Z,6.15
2023-03-05T19:16:21.631Z,7.05
2023-03-05T19:20:26.213Z,4.93
2023-03-05T19:24:31.966Z,4.90
2023-03-05T19:28:35.916Z,4.70
2023-03-05T19:32:40.659Z,7.20
2023-03-05T19:36:45.069Z,8.70
2023-03-05T19:40:49.072Z,8.88
2023-03-05T19:44:52.859Z,8.60
2023-03-05T19:48:57.010Z,8.38
2023-03-05T19:53:01.889Z,7.63
2023-03-05T19:57:06.301Z,7.60
2023-03-05T20:01:21.643Z,7.43
2023-03-05T20:05:27.127Z,8.33
2023-03-05T20:09:31.263Z,6.65
2023-03-05T20:13:35.333Z,6.72
2023-03-05T20:17:39.075Z,7.05
2023-03-05T20:21:43.970Z,9.50
2023-03-05T20:25:49.219Z,6.30
2023-03-05T20:29:53.353Z,7.07
2023-03-05T20:33:58.823Z,6.28
2023-03-05T20:38:22.718Z,7.95
2023-03-05T20:42:26.836Z,8.70
2023-03-05T20:46:36.008Z,7.57
2023-03-05T20:51:15.909Z,7.35
2023-03-05T20:55:20.511Z,7.75
2023-03-05T20:59:25.314Z,7.82
2023-03-05T21:03:29.638Z,8.38
2023-03-05T21:07:34.553Z,7.20
2023-03-05T21:11:39.018Z,6.32
2023-03-05T21:15:43.387Z,8.77
2023-03-05T21:19:47.227Z,6.03
2023-03-05T21:23:51.230Z,5.25
2023-03-05T21:27:59.269Z,7.57
2023-03-05T21:32:03.706Z,5.35
2023-03-05T21:36:08.518Z,7.70
2023-03-05T21:40:16.147Z,9.35
2023-03-05T21:44:19.929Z,2.47
2023-03-05T21:48:25.209Z,5.72
2023-03-05T21:52:28.827Z,21.75
2023-03-05T21:56:33.147Z,14.90
2023-03-05T22:00:36.761Z,9.80
2023-03-05T22:04:40.509Z,6.93
2023-03-05T22:08:45.382Z,6.55
2023-03-05T22:13:12.341Z,5.78
2023-03-05T22:17:15.839Z,8.45
2023-03-05T22:21:22.314Z,9.93
2023-03-05T22:25:25.865Z,10.65
2023-03-05T22:29:29.436Z,9.18
2023-03-05T22:33:32.887Z,9.32
2023-03-05T22:37:36.519Z,2.60
2023-03-05T22:41:41.892Z,10.45
2023-03-05T22:45:45.750Z,9.25
2023-03-05T22:49:49.306Z,9.43
2023-03-05T22:53:52.840Z,10.93
2023-03-05T22:57:57.332Z,10.70
2023-03-05T23:02:00.854Z,10.35
2023-03-05T23:06:05.717Z,6.18
2023-03-05T23:10:16.786Z,8.00
2023-03-05T23:14:20.221Z,5.82
2023-03-05T23:18:23.806Z,6.90
2023-03-05T23:22:27.344Z,7.97
2023-03-05T23:26:30.847Z,6.22
2023-03-05T23:30:39.731Z,4.82
2023-03-05T23:34:43.380Z,6.70
2023-03-05T23:38:47.012Z,9.27
2023-03-05T23:42:51.286Z,5.68
2023-03-05T23:46:54.959Z,7.47
2023-03-05T23:50:58.716Z,10.05
2023-03-05T23:55:03.252Z,10.55
2023-03-05T23:59:08.165Z,14.63
